sensor_id;sensor_type;location;lat;lon;timestamp;P1;durP1;ratioP1;P2;durP2;ratioP2
53309;SDS011;39197;53.200;5.792;2023-09-07T00:01:18;4.85;;;3.47;;
53309;SDS011;39197;53.200;5.792;2023-09-07T00:03:44;4.15;;;3.20;;
53309;SDS011;39197;53.200;5.792;2023-09-07T00:06:09;9.23;;;3.60;;
53309;SDS011;39197;53.200;5.792;2023-09-07T00:08:35;3.95;;;3.08;;
53309;SDS011;39197;53.200;5.792;2023-09-07T00:11:04;5.45;;;3.22;;
53309;SDS011;39197;53.200;5.792;2023-09-07T00:13:31;5.57;;;3.55;;
53309;SDS011;39197;53.200;5.792;2023-09-07T00:16:00;7.78;;;3.65;;
53309;SDS011;39197;53.200;5.792;2023-09-07T00:18:27;6.38;;;4.88;;
53309;SDS011;39197;53.200;5.792;2023-09-07T00:20:53;4.70;;;3.50;;
53309;SDS011;39197;53.200;5.792;2023-09-07T00:23:19;5.10;;;3.20;;
53309;SDS011;39197;53.200;5.792;2023-09-07T00:25:45;6.18;;;3.30;;
53309;SDS011;39197;53.200;5.792;2023-09-07T00:28:11;6.78;;;3.75;;
53309;SDS011;39197;53.200;5.792;2023-09-07T00:30:37;10.82;;;4.72;;
53309;SDS011;39197;53.200;5.792;2023-09-07T00:33:03;7.32;;;3.30;;
53309;SDS011;39197;53.200;5.792;2023-09-07T00:35:29;5.53;;;3.53;;
53309;SDS011;39197;53.200;5.792;2023-09-07T00:37:54;12.13;;;3.45;;
53309;SDS011;39197;53.200;5.792;2023-09-07T00:40:20;6.38;;;3.05;;
53309;SDS011;39197;53.200;5.792;2023-09-07T00:42:47;3.92;;;3.03;;
53309;SDS011;39197;53.200;5.792;2023-09-07T00:45:12;5.75;;;3.58;;
53309;SDS011;39197;53.200;5.792;2023-09-07T00:47:38;5.95;;;3.20;;
53309;SDS011;39197;53.200;5.792;2023-09-07T00:50:04;8.00;;;2.90;;
53309;SDS011;39197;53.200;5.792;2023-09-07T00:52:31;5.15;;;3.40;;
53309;SDS011;39197;53.200;5.792;2023-09-07T00:54:57;4.40;;;3.22;;
53309;SDS011;39197;53.200;5.792;2023-09-07T00:57:24;5.85;;;3.38;;
53309;SDS011;39197;53.200;5.792;2023-09-07T00:59:50;6.20;;;3.10;;
53309;SDS011;39197;53.200;5.792;2023-09-07T01:02:16;3.75;;;3.15;;
53309;SDS011;39197;53.200;5.792;2023-09-07T01:04:41;4.35;;;3.20;;
53309;SDS011;39197;53.200;5.792;2023-09-07T01:07:30;4.13;;;3.22;;
53309;SDS011;39197;53.200;5.792;2023-09-07T01:10:00;5.53;;;3.10;;
53309;SDS011;39197;53.200;5.792;2023-09-07T01:12:27;4.25;;;3.40;;
53309;SDS011;39197;53.200;5.792;2023-09-07T01:14:53;6.35;;;3.30;;
53309;SDS011;39197;53.200;5.792;2023-09-07T01:17:19;6.32;;;3.97;;
53309;SDS011;39197;53.200;5.792;2023-09-07T01:19:47;6.30;;;3.30;;
53309;SDS011;39197;53.200;5.792;2023-09-07T01:22:16;5.07;;;3.63;;
53309;SDS011;39197;53.200;5.792;2023-09-07T01:24:44;8.18;;;3.53;;
53309;SDS011;39197;53.200;5.792;2023-09-07T01:27:11;9.50;;;4.05;;
53309;SDS011;39197;53.200;5.792;2023-09-07T01:29:38;5.28;;;3.20;;
53309;SDS011;39197;53.200;5.792;2023-09-07T01:32:05;5.88;;;3.83;;
53309;SDS011;39197;53.200;5.792;2023-09-07T01:34:32;7.53;;;3.38;;
53309;SDS011;39197;53.200;5.792;2023-09-07T01:36:57;4.72;;;3.33;;
53309;SDS011;39197;53.200;5.792;2023-09-07T01:39:23;6.72;;;3.78;;
53309;SDS011;39197;53.200;5.792;2023-09-07T01:41:49;7.72;;;3.95;;
53309;SDS011;39197;53.200;5.792;2023-09-07T01:44:15;6.82;;;4.32;;
53309;SDS011;39197;53.200;5.792;2023-09-07T01:46:40;5.00;;;4.38;;
53309;SDS011;39197;53.200;5.792;2023-09-07T01:49:06;5.50;;;4.60;;
53309;SDS011;39197;53.200;5.792;2023-09-07T01:51:31;6.53;;;4.22;;
53309;SDS011;39197;53.200;5.792;2023-09-07T01:53:57;7.75;;;3.83;;
53309;SDS011;39197;53.200;5.792;2023-09-07T01:56:23;4.80;;;3.80;;
53309;SDS011;39197;53.200;5.792;2023-09-07T01:58:49;4.63;;;4.05;;
53309;SDS011;39197;53.200;5.792;2023-09-07T02:01:21;5.35;;;3.72;;
53309;SDS011;39197;53.200;5.792;2023-09-07T02:03:51;5.53;;;3.65;;
53309;SDS011;39197;53.200;5.792;2023-09-07T02:06:17;7.28;;;5.88;;
53309;SDS011;39197;53.200;5.792;2023-09-07T02:08:43;4.85;;;4.00;;
53309;SDS011;39197;53.200;5.792;2023-09-07T02:11:09;5.90;;;4.05;;
53309;SDS011;39197;53.200;5.792;2023-09-07T02:13:35;6.70;;;4.10;;
53309;SDS011;39197;53.200;5.792;2023-09-07T02:16:04;4.35;;;3.80;;
53309;SDS011;39197;53.200;5.792;2023-09-07T02:18:31;6.43;;;4.15;;
53309;SDS011;39197;53.200;5.792;2023-09-07T02:21:03;4.65;;;3.78;;
53309;SDS011;39197;53.200;5.792;2023-09-07T02:25:56;5.70;;;4.25;;
53309;SDS011;39197;53.200;5.792;2023-09-07T02:28:22;5.57;;;3.75;;
53309;SDS011;39197;53.200;5.792;2023-09-07T02:30:49;8.30;;;4.57;;
53309;SDS011;39197;53.200;5.792;2023-09-07T02:33:14;6.97;;;4.07;;
53309;SDS011;39197;53.200;5.792;2023-09-07T02:35:40;7.65;;;3.92;;
53309;SDS011;39197;53.200;5.792;2023-09-07T02:38:05;4.40;;;3.88;;
53309;SDS011;39197;53.200;5.792;2023-09-07T02:40:31;6.28;;;3.95;;
53309;SDS011;39197;53.200;5.792;2023-09-07T02:42:57;4.63;;;4.10;;
53309;SDS011;39197;53.200;5.792;2023-09-07T02:45:22;4.55;;;3.83;;
53309;SDS011;39197;53.200;5.792;2023-09-07T02:47:48;6.85;;;4.18;;
53309;SDS011;39197;53.200;5.792;2023-09-07T02:50:16;9.32;;;4.07;;
53309;SDS011;39197;53.200;5.792;2023-09-07T02:52:43;8.43;;;3.70;;
53309;SDS011;39197;53.200;5.792;2023-09-07T02:55:08;8.00;;;3.95;;
53309;SDS011;39197;53.200;5.792;2023-09-07T02:57:34;5.93;;;3.85;;
53309;SDS011;39197;53.200;5.792;2023-09-07T03:00:00;5.00;;;3.80;;
53309;SDS011;39197;53.200;5.792;2023-09-07T03:02:34;9.18;;;3.97;;
53309;SDS011;39197;53.200;5.792;2023-09-07T03:05:00;7.82;;;3.72;;
53309;SDS011;39197;53.200;5.792;2023-09-07T03:07:26;6.90;;;4.18;;
53309;SDS011;39197;53.200;5.792;2023-09-07T03:09:54;9.50;;;3.90;;
53309;SDS011;39197;53.200;5.792;2023-09-07T03:12:20;10.52;;;4.40;;
53309;SDS011;39197;53.200;5.792;2023-09-07T03:14:49;4.60;;;4.07;;
53309;SDS011;39197;53.200;5.792;2023-09-07T03:17:16;5.40;;;4.30;;
53309;SDS011;39197;53.200;5.792;2023-09-07T03:19:42;4.10;;;3.80;;
53309;SDS011;39197;53.200;5.792;2023-09-07T03:22:08;5.40;;;4.10;;
53309;SDS011;39197;53.200;5.792;2023-09-07T03:24:35;9.63;;;4.50;;
53309;SDS011;39197;53.200;5.792;2023-09-07T03:27:00;4.45;;;4.00;;
53309;SDS011;39197;53.200;5.792;2023-09-07T03:29:26;6.18;;;4.60;;
53309;SDS011;39197;53.200;5.792;2023-09-07T03:31:52;7.75;;;4.30;;
53309;SDS011;39197;53.200;5.792;2023-09-07T03:34:17;6.57;;;4.32;;
53309;SDS011;39197;53.200;5.792;2023-09-07T03:36:44;5.65;;;3.80;;
53309;SDS011;39197;53.200;5.792;2023-09-07T03:39:10;6.43;;;4.35;;
53309;SDS011;39197;53.200;5.792;2023-09-07T03:41:36;5.80;;;4.35;;
53309;SDS011;39197;53.200;5.792;2023-09-07T03:44:01;9.27;;;5.05;;
53309;SDS011;39197;53.200;5.792;2023-09-07T03:46:27;7.78;;;4.88;;
53309;SDS011;39197;53.200;5.792;2023-09-07T03:48:53;4.60;;;4.13;;
53309;SDS011;39197;53.200;5.792;2023-09-07T03:51:18;7.30;;;4.85;;
53309;SDS011;39197;53.200;5.792;2023-09-07T03:53:44;5.60;;;4.95;;
53309;SDS011;39197;53.200;5.792;2023-09-07T03:56:10;7.68;;;4.82;;
53309;SDS011;39197;53.200;5.792;2023-09-07T03:58:36;5.15;;;4.50;;
53309;SDS011;39197;53.200;5.792;2023-09-07T04:01:02;8.70;;;4.55;;
53309;SDS011;39197;53.200;5.792;2023-09-07T04:03:28;5.88;;;5.28;;
53309;SDS011;39197;53.200;5.792;2023-09-07T04:05:54;6.75;;;4.40;;
53309;SDS011;39197;53.200;5.792;2023-09-07T04:08:19;5.65;;;4.30;;
53309;SDS011;39197;53.200;5.792;2023-09-07T04:10:45;8.80;;;4.25;;
53309;SDS011;39197;53.200;5.792;2023-09-07T04:13:11;10.80;;;4.55;;
53309;SDS011;39197;53.200;5.792;2023-09-07T04:15:43;6.65;;;4.50;;
53309;SDS011;39197;53.200;5.792;2023-09-07T04:18:10;11.55;;;4.95;;
53309;SDS011;39197;53.200;5.792;2023-09-07T04:20:43;5.15;;;4.57;;
53309;SDS011;39197;53.200;5.792;2023-09-07T04:23:09;5.38;;;4.20;;
53309;SDS011;39197;53.200;5.792;2023-09-07T04:25:34;6.57;;;4.47;;
53309;SDS011;39197;53.200;5.792;2023-09-07T04:28:00;6.85;;;4.80;;
53309;SDS011;39197;53.200;5.792;2023-09-07T04:30:26;8.90;;;4.28;;
53309;SDS011;39197;53.200;5.792;2023-09-07T04:32:52;6.13;;;4.50;;
53309;SDS011;39197;53.200;5.792;2023-09-07T04:35:18;8.43;;;4.28;;
53309;SDS011;39197;53.200;5.792;2023-09-07T04:37:44;7.57;;;4.68;;
53309;SDS011;39197;53.200;5.792;2023-09-07T04:40:10;8.45;;;5.03;;
53309;SDS011;39197;53.200;5.792;2023-09-07T04:42:36;8.68;;;5.30;;
53309;SDS011;39197;53.200;5.792;2023-09-07T04:45:04;5.43;;;4.75;;
53309;SDS011;39197;53.200;5.792;2023-09-07T04:47:30;7.00;;;5.13;;
53309;SDS011;39197;53.200;5.792;2023-09-07T04:49:57;6.38;;;5.07;;
53309;SDS011;39197;53.200;5.792;2023-09-07T04:52:22;9.85;;;6.40;;
53309;SDS011;39197;53.200;5.792;2023-09-07T04:54:48;7.22;;;5.45;;
53309;SDS011;39197;53.200;5.792;2023-09-07T04:57:17;7.75;;;5.80;;
53309;SDS011;39197;53.200;5.792;2023-09-07T04:59:45;5.45;;;4.90;;
53309;SDS011;39197;53.200;5.792;2023-09-07T05:02:11;8.07;;;4.93;;
53309;SDS011;39197;53.200;5.792;2023-09-07T05:04:37;8.85;;;5.00;;
53309;SDS011;39197;53.200;5.792;2023-09-07T05:07:03;8.45;;;6.00;;
53309;SDS011;39197;53.200;5.792;2023-09-07T05:09:29;8.38;;;5.35;;
53309;SDS011;39197;53.200;5.792;2023-09-07T05:11:55;8.50;;;5.18;;
53309;SDS011;39197;53.200;5.792;2023-09-07T05:14:22;7.63;;;5.43;;
53309;SDS011;39197;53.200;5.792;2023-09-07T05:16:48;6.68;;;5.43;;
53309;SDS011;39197;53.200;5.792;2023-09-07T05:19:14;7.28;;;5.00;;
53309;SDS011;39197;53.200;5.792;2023-09-07T05:21:40;7.30;;;5.28;;
53309;SDS011;39197;53.200;5.792;2023-09-07T05:24:06;6.68;;;5.10;;
53309;SDS011;39197;53.200;5.792;2023-09-07T05:26:31;15.98;;;6.07;;
53309;SDS011;39197;53.200;5.792;2023-09-07T05:28:57;6.72;;;5.25;;
53309;SDS011;39197;53.200;5.792;2023-09-07T05:31:23;8.95;;;5.57;;
53309;SDS011;39197;53.200;5.792;2023-09-07T05:33:48;9.65;;;5.68;;
53309;SDS011;39197;53.200;5.792;2023-09-07T05:36:14;7.50;;;5.50;;
53309;SDS011;39197;53.200;5.792;2023-09-07T05:38:40;6.10;;;5.03;;
53309;SDS011;39197;53.200;5.792;2023-09-07T05:41:06;7.97;;;5.60;;
53309;SDS011;39197;53.200;5.792;2023-09-07T05:43:32;6.63;;;5.28;;
53309;SDS011;39197;53.200;5.792;2023-09-07T05:45:58;10.52;;;5.30;;
53309;SDS011;39197;53.200;5.792;2023-09-07T05:48:23;10.07;;;5.13;;
53309;SDS011;39197;53.200;5.792;2023-09-07T05:50:49;12.65;;;5.68;;
53309;SDS011;39197;53.200;5.792;2023-09-07T05:53:15;8.32;;;4.72;;
53309;SDS011;39197;53.200;5.792;2023-09-07T05:55:40;10.20;;;5.32;;
53309;SDS011;39197;53.200;5.792;2023-09-07T05:58:06;8.30;;;5.30;;
53309;SDS011;39197;53.200;5.792;2023-09-07T06:00:36;5.90;;;5.13;;
53309;SDS011;39197;53.200;5.792;2023-09-07T06:03:04;8.18;;;5.43;;
53309;SDS011;39197;53.200;5.792;2023-09-07T06:05:30;5.65;;;4.65;;
53309;SDS011;39197;53.200;5.792;2023-09-07T06:07:56;8.23;;;5.97;;
53309;SDS011;39197;53.200;5.792;2023-09-07T06:10:22;8.90;;;5.85;;
53309;SDS011;39197;53.200;5.792;2023-09-07T06:12:48;10.93;;;5.90;;
53309;SDS011;39197;53.200;5.792;2023-09-07T06:15:14;7.57;;;5.60;;
53309;SDS011;39197;53.200;5.792;2023-09-07T06:17:41;5.32;;;4.82;;
53309;SDS011;39197;53.200;5.792;2023-09-07T06:20:07;6.50;;;5.57;;
53309;SDS011;39197;53.200;5.792;2023-09-07T06:22:33;7.38;;;4.90;;
53309;SDS011;39197;53.200;5.792;2023-09-07T06:24:59;7.22;;;5.38;;
53309;SDS011;39197;53.200;5.792;2023-09-07T06:27:25;6.40;;;4.93;;
53309;SDS011;39197;53.200;5.792;2023-09-07T06:29:51;6.53;;;5.65;;
53309;SDS011;39197;53.200;5.792;2023-09-07T06:32:17;6.97;;;5.53;;
53309;SDS011;39197;53.200;5.792;2023-09-07T06:34:43;7.03;;;6.28;;
53309;SDS011;39197;53.200;5.792;2023-09-07T06:37:10;12.93;;;5.40;;
53309;SDS011;39197;53.200;5.792;2023-09-07T06:39:36;7.32;;;5.63;;
53309;SDS011;39197;53.200;5.792;2023-09-07T06:42:02;6.05;;;5.38;;
53309;SDS011;39197;53.200;5.792;2023-09-07T06:44:28;8.45;;;5.03;;
53309;SDS011;39197;53.200;5.792;2023-09-07T06:46:54;8.35;;;4.95;;
53309;SDS011;39197;53.200;5.792;2023-09-07T06:49:21;5.93;;;5.18;;
53309;SDS011;39197;53.200;5.792;2023-09-07T06:51:47;5.32;;;4.65;;
53309;SDS011;39197;53.200;5.792;2023-09-07T06:54:13;6.40;;;5.13;;
53309;SDS011;39197;53.200;5.792;2023-09-07T06:56:39;7.25;;;4.72;;
53309;SDS011;39197;53.200;5.792;2023-09-07T06:59:05;6.65;;;5.32;;
53309;SDS011;39197;53.200;5.792;2023-09-07T07:01:30;8.05;;;4.80;;
53309;SDS011;39197;53.200;5.792;2023-09-07T07:03:56;7.57;;;5.30;;
53309;SDS011;39197;53.200;5.792;2023-09-07T07:06:23;5.75;;;4.85;;
53309;SDS011;39197;53.200;5.792;2023-09-07T07:08:49;6.20;;;4.72;;
53309;SDS011;39197;53.200;5.792;2023-09-07T07:11:16;6.40;;;4.40;;
53309;SDS011;39197;53.200;5.792;2023-09-07T07:13:42;7.38;;;4.38;;
53309;SDS011;39197;53.200;5.792;2023-09-07T07:16:07;9.43;;;4.85;;
53309;SDS011;39197;53.200;5.792;2023-09-07T07:18:33;6.32;;;4.22;;
53309;SDS011;39197;53.200;5.792;2023-09-07T07:20:59;7.97;;;4.40;;
53309;SDS011;39197;53.200;5.792;2023-09-07T07:23:25;8.52;;;4.75;;
53309;SDS011;39197;53.200;5.792;2023-09-07T07:25:51;6.53;;;3.90;;
53309;SDS011;39197;53.200;5.792;2023-09-07T07:28:17;7.03;;;4.18;;
53309;SDS011;39197;53.200;5.792;2023-09-07T07:30:43;6.63;;;4.28;;
53309;SDS011;39197;53.200;5.792;2023-09-07T07:33:08;7.57;;;4.10;;
53309;SDS011;39197;53.200;5.792;2023-09-07T07:35:36;6.32;;;4.05;;
53309;SDS011;39197;53.200;5.792;2023-09-07T07:38:03;11.15;;;4.97;;
53309;SDS011;39197;53.200;5.792;2023-09-07T07:40:29;7.60;;;4.38;;
53309;SDS011;39197;53.200;5.792;2023-09-07T07:42:56;4.13;;;3.42;;
53309;SDS011;39197;53.200;5.792;2023-09-07T07:45:22;7.18;;;4.20;;
53309;SDS011;39197;53.200;5.792;2023-09-07T07:47:48;5.82;;;3.80;;
53309;SDS011;39197;53.200;5.792;2023-09-07T07:50:14;5.82;;;3.60;;
53309;SDS011;39197;53.200;5.792;2023-09-07T07:52:43;6.13;;;3.88;;
53309;SDS011;39197;53.200;5.792;2023-09-07T07:55:09;7.72;;;4.00;;
53309;SDS011;39197;53.200;5.792;2023-09-07T07:57:35;4.85;;;3.38;;
53309;SDS011;39197;53.200;5.792;2023-09-07T08:00:01;6.93;;;4.10;;
53309;SDS011;39197;53.200;5.792;2023-09-07T08:02:29;5.10;;;3.40;;
53309;SDS011;39197;53.200;5.792;2023-09-07T08:04:55;9.65;;;4.43;;
53309;SDS011;39197;53.200;5.792;2023-09-07T08:07:22;6.45;;;3.55;;
53309;SDS011;39197;53.200;5.792;2023-09-07T08:09:47;4.45;;;3.53;;
53309;SDS011;39197;53.200;5.792;2023-09-07T08:12:13;6.85;;;3.72;;
53309;SDS011;39197;53.200;5.792;2023-09-07T08:14:39;5.10;;;3.50;;
53309;SDS011;39197;53.200;5.792;2023-09-07T08:17:04;6.35;;;3.80;;
53309;SDS011;39197;53.200;5.792;2023-09-07T08:19:30;6.22;;;3.72;;
53309;SDS011;39197;53.200;5.792;2023-09-07T08:21:57;6.72;;;3.55;;
53309;SDS011;39197;53.200;5.792;2023-09-07T08:24:23;7.65;;;3.67;;
53309;SDS011;39197;53.200;5.792;2023-09-07T08:26:49;4.13;;;3.47;;
53309;SDS011;39197;53.200;5.792;2023-09-07T08:29:16;3.85;;;3.40;;
53309;SDS011;39197;53.200;5.792;2023-09-07T08:31:54;4.15;;;3.30;;
53309;SDS011;39197;53.200;5.792;2023-09-07T08:34:21;4.68;;;3.35;;
53309;SDS011;39197;53.200;5.792;2023-09-07T08:36:48;6.60;;;3.17;;
53309;SDS011;39197;53.200;5.792;2023-09-07T08:39:15;5.70;;;3.35;;
53309;SDS011;39197;53.200;5.792;2023-09-07T08:41:42;3.70;;;3.30;;
53309;SDS011;39197;53.200;5.792;2023-09-07T08:44:09;3.33;;;2.80;;
53309;SDS011;39197;53.200;5.792;2023-09-07T08:46:36;6.82;;;3.20;;
53309;SDS011;39197;53.200;5.792;2023-09-07T08:49:07;6.75;;;3.30;;
53309;SDS011;39197;53.200;5.792;2023-09-07T08:51:37;6.68;;;2.95;;
53309;SDS011;39197;53.200;5.792;2023-09-07T08:54:04;2.80;;;2.50;;
53309;SDS011;39197;53.200;5.792;2023-09-07T08:56:33;7.25;;;3.55;;
53309;SDS011;39197;53.200;5.792;2023-09-07T08:58:59;4.00;;;3.60;;
53309;SDS011;39197;53.200;5.792;2023-09-07T09:01:25;4.93;;;2.83;;
53309;SDS011;39197;53.200;5.792;2023-09-07T09:03:51;6.72;;;3.38;;
53309;SDS011;39197;53.200;5.792;2023-09-07T09:06:18;4.47;;;3.63;;
53309;SDS011;39197;53.200;5.792;2023-09-07T09:08:45;4.82;;;2.88;;
53309;SDS011;39197;53.200;5.792;2023-09-07T09:11:15;6.63;;;3.60;;
53309;SDS011;39197;53.200;5.792;2023-09-07T09:13:42;5.55;;;3.50;;
53309;SDS011;39197;53.200;5.792;2023-09-07T09:16:09;5.53;;;3.17;;
53309;SDS011;39197;53.200;5.792;2023-09-07T09:18:36;6.60;;;3.65;;
53309;SDS011;39197;53.200;5.792;2023-09-07T09:21:03;3.50;;;3.13;;
53309;SDS011;39197;53.200;5.792;2023-09-07T09:23:38;6.93;;;3.10;;
53309;SDS011;39197;53.200;5.792;2023-09-07T09:26:03;5.32;;;3.10;;
53309;SDS011;39197;53.200;5.792;2023-09-07T09:28:33;12.18;;;4.00;;
53309;SDS011;39197;53.200;5.792;2023-09-07T09:31:03;7.63;;;3.65;;
53309;SDS011;39197;53.200;5.792;2023-09-07T09:33:32;5.78;;;3.25;;
53309;SDS011;39197;53.200;5.792;2023-09-07T09:36:01;7.32;;;3.92;;
53309;SDS011;39197;53.200;5.792;2023-09-07T09:38:27;6.80;;;3.70;;
53309;SDS011;39197;53.200;5.792;2023-09-07T09:40:57;4.80;;;2.88;;
53309;SDS011;39197;53.200;5.792;2023-09-07T09:43:24;4.65;;;3.83;;
53309;SDS011;39197;53.200;5.792;2023-09-07T09:45:50;9.18;;;2.80;;
53309;SDS011;39197;53.200;5.792;2023-09-07T09:48:21;5.43;;;2.60;;
53309;SDS011;39197;53.200;5.792;2023-09-07T09:50:47;3.92;;;3.22;;
53309;SDS011;39197;53.200;5.792;2023-09-07T09:53:17;5.13;;;3.50;;
53309;SDS011;39197;53.200;5.792;2023-09-07T09:58:13;5.00;;;2.28;;
53309;SDS011;39197;53.200;5.792;2023-09-07T10:00:47;8.15;;;3.55;;
53309;SDS011;39197;53.200;5.792;2023-09-07T10:06:09;3.72;;;2.53;;
53309;SDS011;39197;53.200;5.792;2023-09-07T10:11:42;4.75;;;2.88;;
53309;SDS011;39197;53.200;5.792;2023-09-07T10:14:08;4.50;;;2.97;;
53309;SDS011;39197;53.200;5.792;2023-09-07T10:16:42;3.63;;;2.92;;
53309;SDS011;39197;53.200;5.792;2023-09-07T10:19:18;6.00;;;2.33;;
53309;SDS011;39197;53.200;5.792;2023-09-07T10:21:46;4.43;;;2.30;;
53309;SDS011;39197;53.200;5.792;2023-09-07T10:24:12;4.95;;;2.45;;
53309;SDS011;39197;53.200;5.792;2023-09-07T10:27:03;3.30;;;2.67;;
53309;SDS011;39197;53.200;5.792;2023-09-07T10:29:45;7.28;;;3.00;;
53309;SDS011;39197;53.200;5.792;2023-09-07T10:32:18;8.40;;;2.55;;
53309;SDS011;39197;53.200;5.792;2023-09-07T10:34:44;4.72;;;2.30;;
53309;SDS011;39197;53.200;5.792;2023-09-07T10:37:13;5.15;;;2.33;;
53309;SDS011;39197;53.200;5.792;2023-09-07T10:39:41;8.57;;;2.65;;
53309;SDS011;39197;53.200;5.792;2023-09-07T10:42:30;3.40;;;2.55;;
53309;SDS011;39197;53.200;5.792;2023-09-07T10:45:07;7.95;;;2.47;;
53309;SDS011;39197;53.200;5.792;2023-09-07T10:47:34;6.43;;;2.88;;
53309;SDS011;39197;53.200;5.792;2023-09-07T10:50:00;3.25;;;2.38;;
53309;SDS011;39197;53.200;5.792;2023-09-07T10:52:28;8.77;;;2.65;;
53309;SDS011;39197;53.200;5.792;2023-09-07T10:54:57;4.00;;;2.00;;
53309;SDS011;39197;53.200;5.792;2023-09-07T10:57:27;4.70;;;2.22;;
53309;SDS011;39197;53.200;5.792;2023-09-07T10:59:53;5.20;;;2.55;;
53309;SDS011;39197;53.200;5.792;2023-09-07T11:02:20;4.63;;;2.80;;
53309;SDS011;39197;53.200;5.792;2023-09-07T11:04:49;5.18;;;2.60;;
53309;SDS011;39197;53.200;5.792;2023-09-07T11:07:14;7.47;;;2.47;;
53309;SDS011;39197;53.200;5.792;2023-09-07T11:09:41;2.72;;;2.13;;
53309;SDS011;39197;53.200;5.792;2023-09-07T11:12:07;4.28;;;2.80;;
53309;SDS011;39197;53.200;5.792;2023-09-07T11:14:33;8.07;;;3.03;;
53309;SDS011;39197;53.200;5.792;2023-09-07T11:17:02;4.00;;;2.42;;
53309;SDS011;39197;53.200;5.792;2023-09-07T11:19:31;5.32;;;2.15;;
53309;SDS011;39197;53.200;5.792;2023-09-07T11:22:01;4.33;;;2.40;;
53309;SDS011;39197;53.200;5.792;2023-09-07T11:24:29;4.80;;;3.10;;
53309;SDS011;39197;53.200;5.792;2023-09-07T11:26:57;6.78;;;2.45;;
53309;SDS011;39197;53.200;5.792;2023-09-07T11:29:24;5.18;;;2.88;;
53309;SDS011;39197;53.200;5.792;2023-09-07T11:31:49;7.18;;;2.75;;
53309;SDS011;39197;53.200;5.792;2023-09-07T11:34:15;6.65;;;2.60;;
53309;SDS011;39197;53.200;5.792;2023-09-07T11:36:41;2.20;;;1.90;;
53309;SDS011;39197;53.200;5.792;2023-09-07T11:39:08;5.88;;;2.80;;
53309;SDS011;39197;53.200;5.792;2023-09-07T11:41:44;6.07;;;2.40;;
53309;SDS011;39197;53.200;5.792;2023-09-07T11:44:10;11.38;;;2.97;;
53309;SDS011;39197;53.200;5.792;2023-09-07T11:46:36;7.65;;;2.30;;
53309;SDS011;39197;53.200;5.792;2023-09-07T11:49:03;3.58;;;1.83;;
53309;SDS011;39197;53.200;5.792;2023-09-07T11:51:34;4.45;;;3.13;;
53309;SDS011;39197;53.200;5.792;2023-09-07T11:54:07;6.53;;;2.70;;
53309;SDS011;39197;53.200;5.792;2023-09-07T11:56:33;4.43;;;2.17;;
53309;SDS011;39197;53.200;5.792;2023-09-07T11:59:04;4.13;;;2.30;;
53309;SDS011;39197;53.200;5.792;2023-09-07T12:01:31;6.90;;;2.25;;
53309;SDS011;39197;53.200;5.792;2023-09-07T12:04:00;8.85;;;5.28;;
53309;SDS011;39197;53.200;5.792;2023-09-07T12:06:26;5.95;;;3.28;;
53309;SDS011;39197;53.200;5.792;2023-09-07T12:09:01;3.88;;;1.85;;
53309;SDS011;39197;53.200;5.792;2023-09-07T12:11:28;4.10;;;2.22;;
53309;SDS011;39197;53.200;5.792;2023-09-07T12:13:55;6.18;;;2.45;;
53309;SDS011;39197;53.200;5.792;2023-09-07T12:16:20;6.40;;;3.10;;
53309;SDS011;39197;53.200;5.792;2023-09-07T12:18:46;6.88;;;2.35;;
53309;SDS011;39197;53.200;5.792;2023-09-07T12:21:15;4.90;;;2.00;;
53309;SDS011;39197;53.200;5.792;2023-09-07T12:23:44;5.85;;;2.00;;
53309;SDS011;39197;53.200;5.792;2023-09-07T12:26:14;3.17;;;1.85;;
53309;SDS011;39197;53.200;5.792;2023-09-07T12:28:42;4.82;;;1.85;;
53309;SDS011;39197;53.200;5.792;2023-09-07T12:31:09;4.50;;;2.97;;
53309;SDS011;39197;53.200;5.792;2023-09-07T12:33:36;4.93;;;2.25;;
53309;SDS011;39197;53.200;5.792;2023-09-07T12:36:02;8.25;;;2.15;;
53309;SDS011;39197;53.200;5.792;2023-09-07T12:38:28;6.10;;;2.50;;
53309;SDS011;39197;53.200;5.792;2023-09-07T12:40:55;4.80;;;1.95;;
53309;SDS011;39197;53.200;5.792;2023-09-07T12:43:21;5.18;;;2.50;;
53309;SDS011;39197;53.200;5.792;2023-09-07T12:45:52;3.83;;;2.35;;
53309;SDS011;39197;53.200;5.792;2023-09-07T12:48:19;3.97;;;3.03;;
53309;SDS011;39197;53.200;5.792;2023-09-07T12:50:45;3.30;;;2.28;;
53309;SDS011;39197;53.200;5.792;2023-09-07T12:53:11;5.13;;;2.10;;
53309;SDS011;39197;53.200;5.792;2023-09-07T12:55:37;4.00;;;2.20;;
53309;SDS011;39197;53.200;5.792;2023-09-07T12:58:03;3.97;;;3.20;;
53309;SDS011;39197;53.200;5.792;2023-09-07T13:00:29;3.05;;;2.47;;
53309;SDS011;39197;53.200;5.792;2023-09-07T13:02:56;5.75;;;3.15;;
53309;SDS011;39197;53.200;5.792;2023-09-07T13:05:22;9.10;;;5.20;;
53309;SDS011;39197;53.200;5.792;2023-09-07T13:07:48;8.13;;;2.47;;
53309;SDS011;39197;53.200;5.792;2023-09-07T13:10:15;7.80;;;3.05;;
53309;SDS011;39197;53.200;5.792;2023-09-07T13:12:41;4.32;;;2.90;;
53309;SDS011;39197;53.200;5.792;2023-09-07T13:15:07;3.78;;;2.65;;
53309;SDS011;39197;53.200;5.792;2023-09-07T13:17:33;5.10;;;2.45;;
53309;SDS011;39197;53.200;5.792;2023-09-07T13:19:59;7.18;;;2.08;;
53309;SDS011;39197;53.200;5.792;2023-09-07T13:22:25;7.32;;;2.80;;
53309;SDS011;39197;53.200;5.792;2023-09-07T13:24:57;3.95;;;2.58;;
53309;SDS011;39197;53.200;5.792;2023-09-07T13:27:26;3.08;;;2.25;;
53309;SDS011;39197;53.200;5.792;2023-09-07T13:29:54;2.97;;;2.28;;
53309;SDS011;39197;53.200;5.792;2023-09-07T13:32:21;3.85;;;2.28;;
53309;SDS011;39197;53.200;5.792;2023-09-07T13:34:47;6.18;;;2.63;;
53309;SDS011;39197;53.200;5.792;2023-09-07T13:37:13;6.53;;;2.70;;
53309;SDS011;39197;53.200;5.792;2023-09-07T13:39:38;6.28;;;2.20;;
53309;SDS011;39197;53.200;5.792;2023-09-07T13:42:04;9.10;;;2.38;;
53309;SDS011;39197;53.200;5.792;2023-09-07T13:44:30;8.13;;;2.70;;
53309;SDS011;39197;53.200;5.792;2023-09-07T13:46:56;8.10;;;2.65;;
53309;SDS011;39197;53.200;5.792;2023-09-07T13:49:21;5.28;;;2.28;;
53309;SDS011;39197;53.200;5.792;2023-09-07T13:51:47;5.65;;;2.20;;
53309;SDS011;39197;53.200;5.792;2023-09-07T13:54:13;5.53;;;2.65;;
53309;SDS011;39197;53.200;5.792;2023-09-07T13:56:41;5.55;;;2.22;;
53309;SDS011;39197;53.200;5.792;2023-09-07T13:59:10;5.70;;;2.95;;
53309;SDS011;39197;53.200;5.792;2023-09-07T14:01:36;5.20;;;1.85;;
53309;SDS011;39197;53.200;5.792;2023-09-07T14:04:04;4.18;;;2.05;;
53309;SDS011;39197;53.200;5.792;2023-09-07T14:06:30;2.60;;;2.30;;
53309;SDS011;39197;53.200;5.792;2023-09-07T14:08:55;3.60;;;2.58;;
53309;SDS011;39197;53.200;5.792;2023-09-07T14:11:22;3.88;;;1.90;;
53309;SDS011;39197;53.200;5.792;2023-09-07T14:13:48;4.47;;;4.03;;
53309;SDS011;39197;53.200;5.792;2023-09-07T14:16:18;3.42;;;2.08;;
53309;SDS011;39197;53.200;5.792;2023-09-07T14:18:45;3.72;;;1.90;;
53309;SDS011;39197;53.200;5.792;2023-09-07T14:21:14;3.75;;;2.22;;
53309;SDS011;39197;53.200;5.792;2023-09-07T14:23:40;5.05;;;2.10;;
53309;SDS011;39197;53.200;5.792;2023-09-07T14:26:07;6.32;;;2.67;;
53309;SDS011;39197;53.200;5.792;2023-09-07T14:28:34;2.50;;;1.80;;
53309;SDS011;39197;53.200;5.792;2023-09-07T14:31:00;5.68;;;1.70;;
53309;SDS011;39197;53.200;5.792;2023-09-07T14:33:28;4.72;;;2.28;;
53309;SDS011;39197;53.200;5.792;2023-09-07T14:35:54;4.15;;;2.70;;
53309;SDS011;39197;53.200;5.792;2023-09-07T14:38:20;6.97;;;3.78;;
53309;SDS011;39197;53.200;5.792;2023-09-07T14:40:46;2.33;;;1.95;;
53309;SDS011;39197;53.200;5.792;2023-09-07T14:43:15;2.38;;;1.70;;
53309;SDS011;39197;53.200;5.792;2023-09-07T14:45:41;3.53;;;2.20;;
53309;SDS011;39197;53.200;5.792;2023-09-07T14:48:08;4.05;;;2.47;;
53309;SDS011;39197;53.200;5.792;2023-09-07T14:50:37;5.45;;;3.67;;
53309;SDS011;39197;53.200;5.792;2023-09-07T14:53:03;6.60;;;2.50;;
53309;SDS011;39197;53.200;5.792;2023-09-07T14:55:29;7.70;;;2.45;;
53309;SDS011;39197;53.200;5.792;2023-09-07T14:57:55;4.05;;;1.98;;